sensor_id;sensor_type;location;lat;lon;timestamp;pressure;altitude;pressure_sealevel;temperature;humidity
61318;BME280;47201;40.428;-8.436;2022-07-12T00:01:36;100229.38;;;17.59;100.00
61318;BME280;47201;40.428;-8.436;2022-07-12T00:03:36;100227.72;;;17.57;100.00
61318;BME280;47201;40.428;-8.436;2022-07-12T00:05:37;100237.53;;;17.53;100.00
61318;BME280;47201;40.428;-8.436;2022-07-12T00:07:37;100229.69;;;17.52;100.00
61318;BME280;47201;40.428;-8.436;2022-07-12T00:09:38;100240.28;;;17.50;100.00
61318;BME280;47201;40.428;-8.436;2022-07-12T00:11:39;100241.22;;;17.49;100.00
61318;BME280;47201;40.428;-8.436;2022-07-12T00:13:39;100244.88;;;17.45;100.00
61318;BME280;47201;40.428;-8.436;2022-07-12T00:15:40;100248.44;;;17.44;100.00
61318;BME280;47201;40.428;-8.436;2022-07-12T00:17:40;100254.66;;;17.43;100.00
61318;BME280;47201;40.428;-8.436;2022-07-12T00:19:41;100258.28;;;17.40;100.00
61318;BME280;47201;40.428;-8.436;2022-07-12T00:21:41;100257.41;;;17.40;100.00
61318;BME280;47201;40.428;-8.436;2022-07-12T00:23:42;100250.31;;;17.42;100.00
61318;BME280;47201;40.428;-8.436;2022-07-12T00:25:42;100262.47;;;17.46;100.00
61318;BME280;47201;40.428;-8.436;2022-07-12T00:27:43;100261.31;;;17.53;100.00
61318;BME280;47201;40.428;-8.436;2022-07-12T00:29:44;100265.38;;;17.62;100.00
61318;BME280;47201;40.428;-8.436;2022-07-12T00:31:44;100256.50;;;17.65;100.00
61318;BME280;47201;40.428;-8.436;2022-07-12T00:33:45;100259.81;;;17.70;100.00
61318;BME280;47201;40.428;-8.436;2022-07-12T00:35:45;100251.31;;;17.62;100.00
61318;BME280;47201;40.428;-8.436;2022-07-12T00:37:46;100251.56;;;17.55;100.00
61318;BME280;47201;40.428;-8.436;2022-07-12T00:39:46;100247.88;;;17.59;100.00
61318;BME280;47201;40.428;-8.436;2022-07-12T00:41:47;100246.97;;;17.60;100.00
61318;BME280;47201;40.428;-8.436;2022-07-12T00:43:48;100249.53;;;17.62;100.00
61318;BME280;47201;40.428;-8.436;2022-07-12T00:45:49;100239.03;;;17.60;100.00
61318;BME280;47201;40.428;-8.436;2022-07-12T00:47:50;100236.44;;;17.59;100.00
61318;BME280;47201;40.428;-8.436;2022-07-12T00:49:50;100242.81;;;17.53;100.00
61318;BME280;47201;40.428;-8.436;2022-07-12T00:51:51;100238.38;;;17.54;100.00
61318;BME280;47201;40.428;-8.436;2022-07-12T00:53:54;100237.59;;;17.52;100.00
61318;BME280;47201;40.428;-8.436;2022-07-12T00:55:56;100235.06;;;17.49;100.00
61318;BME280;47201;40.428;-8.436;2022-07-12T00:57:57;100235.13;;;17.47;100.00
61318;BME280;47201;40.428;-8.436;2022-07-12T00:59:58;100234.97;;;17.52;100.00
61318;BME280;47201;40.428;-8.436;2022-07-12T01:01:58;100238.44;;;17.52;100.00
61318;BME280;47201;40.428;-8.436;2022-07-12T01:04:00;100222.59;;;17.52;100.00
61318;BME280;47201;40.428;-8.436;2022-07-12T01:06:00;100212.84;;;17.54;100.00
61318;BME280;47201;40.428;-8.436;2022-07-12T01:08:01;100201.28;;;17.57;100.00
61318;BME280;47201;40.428;-8.436;2022-07-12T01:10:02;100206.41;;;17.62;100.00
61318;BME280;47201;40.428;-8.436;2022-07-12T01:12:03;100201.78;;;17.67;100.00
61318;BME280;47201;40.428;-8.436;2022-07-12T01:14:04;100199.22;;;17.65;100.00
61318;BME280;47201;40.428;-8.436;2022-07-12T01:16:05;100200.19;;;17.63;100.00
61318;BME280;47201;40.428;-8.436;2022-07-12T01:18:06;100191.38;;;17.62;100.00
61318;BME280;47201;40.428;-8.436;2022-07-12T01:20:07;100187.91;;;17.62;100.00
61318;BME280;47201;40.428;-8.436;2022-07-12T01:22:10;100175.84;;;17.54;100.00
61318;BME280;47201;40.428;-8.436;2022-07-12T01:24:11;100173.38;;;17.50;100.00
61318;BME280;47201;40.428;-8.436;2022-07-12T01:26:13;100170.09;;;17.43;100.00
61318;BME280;47201;40.428;-8.436;2022-07-12T01:28:13;100165.78;;;17.40;100.00
61318;BME280;47201;40.428;-8.436;2022-07-12T01:30:15;100157.94;;;17.39;100.00
61318;BME280;47201;40.428;-8.436;2022-07-12T01:32:15;100163.22;;;17.39;100.00
61318;BME280;47201;40.428;-8.436;2022-07-12T01:34:25;100162.16;;;17.43;100.00
61318;BME280;47201;40.428;-8.436;2022-07-12T01:36:26;100161.22;;;17.46;100.00
61318;BME280;47201;40.428;-8.436;2022-07-12T01:38:26;100161.22;;;17.46;100.00
61318;BME280;47201;40.428;-8.436;2022-07-12T01:40:27;100157.69;;;17.45;100.00
61318;BME280;47201;40.428;-8.436;2022-07-12T01:42:28;100156.72;;;17.48;100.00
61318;BME280;47201;40.428;-8.436;2022-07-12T01:44:30;100154.06;;;17.48;100.00
61318;BME280;47201;40.428;-8.436;2022-07-12T01:46:32;100156.66;;;17.49;100.00
61318;BME280;47201;40.428;-8.436;2022-07-12T01:48:32;100161.97;;;17.49;100.00
61318;BME280;47201;40.428;-8.436;2022-07-12T01:50:33;100157.53;;;17.50;100.00
61318;BME280;47201;40.428;-8.436;2022-07-12T01:52:34;100160.09;;;17.51;100.00
61318;BME280;47201;40.428;-8.436;2022-07-12T01:54:34;100167.09;;;17.52;100.00
61318;BME280;47201;40.428;-8.436;2022-07-12T01:56:35;100163.63;;;17.52;100.00
61318;BME280;47201;40.428;-8.436;2022-07-12T01:58:36;100160.91;;;17.53;100.00
61318;BME280;47201;40.428;-8.436;2022-07-12T02:00:37;100155.50;;;17.56;100.00
61318;BME280;47201;40.428;-8.436;2022-07-12T02:02:38;100162.44;;;17.59;100.00
61318;BME280;47201;40.428;-8.436;2022-07-12T02:04:39;100157.91;;;17.63;100.00
61318;BME280;47201;40.428;-8.436;2022-07-12T02:06:40;100159.63;;;17.64;100.00
61318;BME280;47201;40.428;-8.436;2022-07-12T02:08:41;100159.56;;;17.65;100.00
61318;BME280;47201;40.428;-8.436;2022-07-12T02:10:42;100157.91;;;17.63;100.00
61318;BME280;47201;40.428;-8.436;2022-07-12T02:12:43;100158.81;;;17.62;100.00
61318;BME280;47201;40.428;-8.436;2022-07-12T02:14:44;100157.16;;;17.59;100.00
61318;BME280;47201;40.428;-8.436;2022-07-12T02:16:44;100156.28;;;17.58;100.00
61318;BME280;47201;40.428;-8.436;2022-07-12T02:18:45;100150.16;;;17.58;100.00
61318;BME280;47201;40.428;-8.436;2022-07-12T02:20:45;100151.13;;;17.55;100.00
61318;BME280;47201;40.428;-8.436;2022-07-12T02:22:46;100150.41;;;17.52;100.00
61318;BME280;47201;40.428;-8.436;2022-07-12T02:24:46;100154.81;;;17.51;100.00
61318;BME280;47201;40.428;-8.436;2022-07-12T02:26:47;100159.31;;;17.49;100.00
61318;BME280;47201;40.428;-8.436;2022-07-12T02:28:48;100156.66;;;17.49;100.00
61318;BME280;47201;40.428;-8.436;2022-07-12T02:30:48;100145.16;;;17.50;100.00
61318;BME280;47201;40.428;-8.436;2022-07-12T02:32:49;100154.78;;;17.53;100.00
61318;BME280;47201;40.428;-8.436;2022-07-12T02:34:49;100149.34;;;17.56;100.00
61318;BME280;47201;40.428;-8.436;2022-07-12T02:36:50;100149.97;;;17.63;100.00
61318;BME280;47201;40.428;-8.436;2022-07-12T02:38:50;100145.50;;;17.65;100.00
61318;BME280;47201;40.428;-8.436;2022-07-12T02:40:51;100141.78;;;17.69;100.00
61318;BME280;47201;40.428;-8.436;2022-07-12T02:42:54;100144.34;;;17.72;100.00
61318;BME280;47201;40.428;-8.436;2022-07-12T02:44:55;100149.47;;;17.75;100.00
61318;BME280;47201;40.428;-8.436;2022-07-12T02:46:55;100141.44;;;17.78;100.00
61318;BME280;47201;40.428;-8.436;2022-07-12T02:48:56;100146.56;;;17.81;100.00
61318;BME280;47201;40.428;-8.436;2022-07-12T02:51:01;100139.34;;;17.86;100.00
61318;BME280;47201;40.428;-8.436;2022-07-12T02:53:02;100144.38;;;17.92;100.00
61318;BME280;47201;40.428;-8.436;2022-07-12T02:55:02;100131.84;;;17.98;100.00
61318;BME280;47201;40.428;-8.436;2022-07-12T02:57:03;100141.38;;;18.02;99.81
61318;BME280;47201;40.428;-8.436;2022-07-12T02:59:03;100127.16;;;18.04;99.60
61318;BME280;47201;40.428;-8.436;2022-07-12T03:01:04;100138.53;;;18.06;99.31
61318;BME280;47201;40.428;-8.436;2022-07-12T03:03:05;100130.53;;;18.08;99.38
61318;BME280;47201;40.428;-8.436;2022-07-12T03:05:08;100132.28;;;18.09;99.38
61318;BME280;47201;40.428;-8.436;2022-07-12T03:07:09;100136.50;;;18.13;99.21
61318;BME280;47201;40.428;-8.436;2022-07-12T03:09:09;100137.28;;;18.15;98.95
61318;BME280;47201;40.428;-8.436;2022-07-12T03:11:10;100135.50;;;18.16;98.93
61318;BME280;47201;40.428;-8.436;2022-07-12T03:13:10;100136.38;;;18.16;98.83
61318;BME280;47201;40.428;-8.436;2022-07-12T03:15:11;100135.41;;;18.17;98.92
61318;BME280;47201;40.428;-8.436;2022-07-12T03:17:11;100137.16;;;18.18;98.80
61318;BME280;47201;40.428;-8.436;2022-07-12T03:19:12;100131.81;;;18.20;98.73
61318;BME280;47201;40.428;-8.436;2022-07-12T03:21:12;100130.81;;;18.22;98.74
61318;BME280;47201;40.428;-8.436;2022-07-12T03:23:13;100126.38;;;18.23;98.52
61318;BME280;47201;40.428;-8.436;2022-07-12T03:25:14;100118.50;;;18.21;98.50
61318;BME280;47201;40.428;-8.436;2022-07-12T03:27:15;100129.94;;;18.22;98.40
61318;BME280;47201;40.428;-8.436;2022-07-12T03:29:15;100126.38;;;18.23;98.41
61318;BME280;47201;40.428;-8.436;2022-07-12T03:31:16;100128.91;;;18.26;98.13
61318;BME280;47201;40.428;-8.436;2022-07-12T03:33:16;100124.38;;;18.28;98.04
61318;BME280;47201;40.428;-8.436;2022-07-12T03:35:17;100126.09;;;18.29;98.04
61318;BME280;47201;40.428;-8.436;2022-07-12T03:37:17;100125.06;;;18.33;97.45
61318;BME280;47201;40.428;-8.436;2022-07-12T03:39:18;100120.56;;;18.35;97.36
61318;BME280;47201;40.428;-8.436;2022-07-12T03:41:18;100123.22;;;18.35;97.08
61318;BME280;47201;40.428;-8.436;2022-07-12T03:43:19;100119.69;;;18.35;96.83
61318;BME280;47201;40.428;-8.436;2022-07-12T03:45:20;100129.44;;;18.34;96.84
61318;BME280;47201;40.428;-8.436;2022-07-12T03:47:20;100122.47;;;18.32;97.06
61318;BME280;47201;40.428;-8.436;2022-07-12T03:49:21;100134.72;;;18.34;97.00
61318;BME280;47201;40.428;-8.436;2022-07-12T03:51:21;100127.63;;;18.35;97.01
61318;BME280;47201;40.428;-8.436;2022-07-12T03:53:22;100116.97;;;18.36;97.21
61318;BME280;47201;40.428;-8.436;2022-07-12T03:55:23;100122.22;;;18.38;96.97
61318;BME280;47201;40.428;-8.436;2022-07-12T03:57:24;100117.69;;;18.40;97.14
61318;BME280;47201;40.428;-8.436;2022-07-12T03:59:26;100112.28;;;18.43;97.26
61318;BME280;47201;40.428;-8.436;2022-07-12T04:01:27;100114.84;;;18.45;97.31
61318;BME280;47201;40.428;-8.436;2022-07-12T04:03:28;100122.75;;;18.46;97.20
61318;BME280;47201;40.428;-8.436;2022-07-12T04:05:28;100121.16;;;18.42;97.65
61318;BME280;47201;40.428;-8.436;2022-07-12T04:07:29;100117.84;;;18.37;97.64
61318;BME280;47201;40.428;-8.436;2022-07-12T04:09:29;100111.13;;;18.30;97.88
61318;BME280;47201;40.428;-8.436;2022-07-12T04:11:30;100120.09;;;18.26;98.03
61318;BME280;47201;40.428;-8.436;2022-07-12T04:13:30;100119.31;;;18.23;98.27
61318;BME280;47201;40.428;-8.436;2022-07-12T04:15:32;100117.53;;;18.24;98.61
61318;BME280;47201;40.428;-8.436;2022-07-12T04:17:32;100115.94;;;18.20;98.81
61318;BME280;47201;40.428;-8.436;2022-07-12T04:19:33;100121.81;;;18.27;98.59
61318;BME280;47201;40.428;-8.436;2022-07-12T04:21:34;100126.09;;;18.29;98.80
61318;BME280;47201;40.428;-8.436;2022-07-12T04:23:35;100126.91;;;18.31;98.54
61318;BME280;47201;40.428;-8.436;2022-07-12T04:25:36;100121.69;;;18.30;98.23
61318;BME280;47201;40.428;-8.436;2022-07-12T04:27:37;100131.34;;;18.31;98.42
61318;BME280;47201;40.428;-8.436;2022-07-12T04:29:37;100138.28;;;18.33;98.31
61318;BME280;47201;40.428;-8.436;2022-07-12T04:31:38;100139.16;;;18.34;98.05
61318;BME280;47201;40.428;-8.436;2022-07-12T04:33:38;100144.31;;;18.37;98.20
61318;BME280;47201;40.428;-8.436;2022-07-12T04:35:39;100158.38;;;18.37;97.71
61318;BME280;47201;40.428;-8.436;2022-07-12T04:37:39;100160.19;;;18.37;97.83
61318;BME280;47201;40.428;-8.436;2022-07-12T04:39:40;100162.94;;;18.34;97.62
61318;BME280;47201;40.428;-8.436;2022-07-12T04:41:40;100157.66;;;18.34;97.74
61318;BME280;47201;40.428;-8.436;2022-07-12T04:43:41;100162.03;;;18.35;97.68
61318;BME280;47201;40.428;-8.436;2022-07-12T04:45:42;100166.22;;;18.41;97.55
61318;BME280;47201;40.428;-8.436;2022-07-12T04:47:45;100170.03;;;18.54;96.94
61318;BME280;47201;40.428;-8.436;2022-07-12T04:49:45;100165.47;;;18.58;96.73
61318;BME280;47201;40.428;-8.436;2022-07-12T04:51:46;100161.75;;;18.62;96.44
61318;BME280;47201;40.428;-8.436;2022-07-12T04:53:46;100164.16;;;18.68;96.20
61318;BME280;47201;40.428;-8.436;2022-07-12T04:55:47;100162.88;;;18.77;95.98
61318;BME280;47201;40.428;-8.436;2022-07-12T04:57:48;100170.44;;;18.86;95.59
61318;BME280;47201;40.428;-8.436;2022-07-12T04:59:48;100173.38;;;18.99;94.32
61318;BME280;47201;40.428;-8.436;2022-07-12T05:01:49;100178.22;;;19.10;94.21
61318;BME280;47201;40.428;-8.436;2022-07-12T05:03:49;100180.38;;;19.21;93.49
61318;BME280;47201;40.428;-8.436;2022-07-12T05:05:50;100181.53;;;19.34;92.62
61318;BME280;47201;40.428;-8.436;2022-07-12T05:07:51;100179.50;;;19.39;91.97
61318;BME280;47201;40.428;-8.436;2022-07-12T05:09:51;100178.38;;;19.45;91.41
61318;BME280;47201;40.428;-8.436;2022-07-12T05:11:52;100181.75;;;19.48;91.29
61318;BME280;47201;40.428;-8.436;2022-07-12T05:13:52;100187.75;;;19.52;90.62
61318;BME280;47201;40.428;-8.436;2022-07-12T05:15:53;100193.91;;;19.53;90.60
61318;BME280;47201;40.428;-8.436;2022-07-12T05:17:53;100192.19;;;19.52;90.53
61318;BME280;47201;40.428;-8.436;2022-07-12T05:19:54;100198.56;;;19.47;90.83
61318;BME280;47201;40.428;-8.436;2022-07-12T05:21:55;100203.97;;;19.46;90.66
61318;BME280;47201;40.428;-8.436;2022-07-12T05:23:56;100205.72;;;19.45;91.07
61318;BME280;47201;40.428;-8.436;2022-07-12T05:25:56;100213.69;;;19.45;91.06
61318;BME280;47201;40.428;-8.436;2022-07-12T05:27:57;100216.34;;;19.45;90.69
61318;BME280;47201;40.428;-8.436;2022-07-12T05:29:57;100227.72;;;19.47;90.38
61318;BME280;47201;40.428;-8.436;2022-07-12T05:31:58;100222.34;;;19.49;89.67
61318;BME280;47201;40.428;-8.436;2022-07-12T05:33:59;100224.94;;;19.50;89.02
61318;BME280;47201;40.428;-8.436;2022-07-12T05:35:59;100234.47;;;19.55;88.96
61318;BME280;47201;40.428;-8.436;2022-07-12T05:38:01;100227.16;;;19.60;88.48
61318;BME280;47201;40.428;-8.436;2022-07-12T05:40:03;100231.19;;;19.69;88.25
61318;BME280;47201;40.428;-8.436;2022-07-12T05:42:04;100250.16;;;19.78;87.92
61318;BME280;47201;40.428;-8.436;2022-07-12T05:44:04;100244.50;;;19.86;87.35
61318;BME280;47201;40.428;-8.436;2022-07-12T05:46:05;100240.50;;;19.96;87.35
61318;BME280;47201;40.428;-8.436;2022-07-12T05:48:06;100251.66;;;20.03;87.18
61318;BME280;47201;40.428;-8.436;2022-07-12T05:50:06;100251.22;;;20.12;86.80
61318;BME280;47201;40.428;-8.436;2022-07-12T05:52:07;100259.56;;;20.22;86.41
61318;BME280;47201;40.428;-8.436;2022-07-12T05:54:26;100254.03;;;20.27;86.29
61318;BME280;47201;40.428;-8.436;2022-07-12T05:56:26;100264.22;;;20.36;86.11
61318;BME280;47201;40.428;-8.436;2022-07-12T05:58:27;100263.06;;;20.42;85.98
61318;BME280;47201;40.428;-8.436;2022-07-12T06:00:27;100272.22;;;20.54;85.56
61318;BME280;47201;40.428;-8.436;2022-07-12T06:02:28;100272.59;;;20.64;85.44
61318;BME280;47201;40.428;-8.436;2022-07-12T06:04:28;100272.78;;;20.78;84.79
61318;BME280;47201;40.428;-8.436;2022-07-12T06:06:29;100277.13;;;20.97;83.98
61318;BME280;47201;40.428;-8.436;2022-07-12T06:08:29;100277.81;;;21.18;83.39
61318;BME280;47201;40.428;-8.436;2022-07-12T06:10:30;100274.81;;;21.42;82.18
61318;BME280;47201;40.428;-8.436;2022-07-12T06:12:31;100283.47;;;21.63;81.10
61318;BME280;47201;40.428;-8.436;2022-07-12T06:14:31;100277.69;;;21.86;79.81
61318;BME280;47201;40.428;-8.436;2022-07-12T06:16:32;100279.00;;;22.11;78.71
61318;BME280;47201;40.428;-8.436;2022-07-12T06:18:36;100290.03;;;22.35;77.73
61318;BME280;47201;40.428;-8.436;2022-07-12T06:20:36;100295.28;;;22.53;76.22
61318;BME280;47201;40.428;-8.436;2022-07-12T06:22:37;100294.78;;;22.77;74.74
61318;BME280;47201;40.428;-8.436;2022-07-12T06:24:37;100300.44;;;22.87;72.99
61318;BME280;47201;40.428;-8.436;2022-07-12T06:26:38;100290.75;;;23.00;73.00
61318;BME280;47201;40.428;-8.436;2022-07-12T06:28:39;100296.97;;;23.15;71.38
61318;BME280;47201;40.428;-8.436;2022-07-12T06:30:39;100302.72;;;23.38;70.96
61318;BME280;47201;40.428;-8.436;2022-07-12T06:32:40;100303.06;;;23.60;72.24
61318;BME280;47201;40.428;-8.436;2022-07-12T06:34:40;100296.78;;;23.76;71.92
61318;BME280;47201;40.428;-8.436;2022-07-12T06:36:41;100304.97;;;23.87;68.65
61318;BME280;47201;40.428;-8.436;2022-07-12T06:38:44;100312.00;;;24.17;69.25
61318;BME280;47201;40.428;-8.436;2022-07-12T06:40:44;100308.69;;;24.41;68.80
61318;BME280;47201;40.428;-8.436;2022-07-12T06:42:45;100307.06;;;24.38;68.87
61318;BME280;47201;40.428;-8.436;2022-07-12T06:44:45;100313.50;;;24.49;68.31
61318;BME280;47201;40.428;-8.436;2022-07-12T06:46:46;100315.97;;;24.52;68.22
61318;BME280;47201;40.428;-8.436;2022-07-12T06:48:46;100317.13;;;24.75;67.31
61318;BME280;47201;40.428;-8.436;2022-07-12T06:50:47;100322.53;;;25.01;67.37
61318;BME280;47201;40.428;-8.436;2022-07-12T06:52:47;100325.97;;;25.29;66.74
61318;BME280;47201;40.428;-8.436;2022-07-12T06:54:48;100330.13;;;25.33;66.60
61318;BME280;47201;40.428;-8.436;2022-07-12T06:56:48;100322.22;;;25.18;66.53
61318;BME280;47201;40.428;-8.436;2022-07-12T06:58:49;100333.00;;;25.04;66.77
61318;BME280;47201;40.428;-8.436;2022-07-12T07:00:49;100323.34;;;24.89;67.14
61318;BME280;47201;40.428;-8.436;2022-07-12T07:02:50;100332.88;;;24.93;66.27
61318;BME280;47201;40.428;-8.436;2022-07-12T07:04:51;100329.13;;;24.82;67.25
61318;BME280;47201;40.428;-8.436;2022-07-12T07:06:51;100333.59;;;24.69;67.75
61318;BME280;47201;40.428;-8.436;2022-07-12T07:08:52;100337.34;;;24.52;68.51
61318;BME280;47201;40.428;-8.436;2022-07-12T07:10:52;100348.38;;;24.33;69.18
61318;BME280;47201;40.428;-8.436;2022-07-12T07:12:53;100347.19;;;24.10;69.64
61318;BME280;47201;40.428;-8.436;2022-07-12T07:14:54;100342.81;;;24.08;68.24
61318;BME280;47201;40.428;-8.436;2022-07-12T07:16:54;100352.47;;;24.38;65.57
61318;BME280;47201;40.428;-8.436;2022-07-12T07:18:55;100347.81;;;24.82;62.75
61318;BME280;47201;40.428;-8.436;2022-07-12T07:20:55;100354.31;;;25.31;60.95
61318;BME280;47201;40.428;-8.436;2022-07-12T07:22:56;100355.59;;;25.77;59.90
61318;BME280;47201;40.428;-8.436;2022-07-12T07:24:56;100355.44;;;26.18;58.98
61318;BME280;47201;40.428;-8.436;2022-07-12T07:26:57;100367.34;;;26.51;56.60
61318;BME280;47201;40.428;-8.436;2022-07-12T07:28:58;100364.44;;;26.78;55.27
61318;BME280;47201;40.428;-8.436;2022-07-12T07:31:16;100367.72;;;27.06;55.23
61318;BME280;47201;40.428;-8.436;2022-07-12T07:33:18;100367.78;;;27.29;55.55
61318;BME280;47201;40.428;-8.436;2022-07-12T07:35:18;100369.66;;;27.51;55.77
61318;BME280;47201;40.428;-8.436;2022-07-12T07:37:19;100378.81;;;27.71;55.13
61318;BME280;47201;40.428;-8.436;2022-07-12T07:39:20;100376.63;;;27.88;53.39
61318;BME280;47201;40.428;-8.436;2022-07-12T07:41:20;100384.69;;;28.10;53.55
61318;BME280;47201;40.428;-8.436;2022-07-12T07:43:21;100381.09;;;28.44;50.24
61318;BME280;47201;40.428;-8.436;2022-07-12T07:45:21;100385.00;;;29.05;49.07
61318;BME280;47201;40.428;-8.436;2022-07-12T07:47:23;100390.00;;;30.04;48.22
61318;BME280;47201;40.428;-8.436;2022-07-12T07:49:24;100390.25;;;31.49;45.55
61318;BME280;47201;40.428;-8.436;2022-07-12T07:51:25;100386.38;;;33.18;39.48
61318;BME280;47201;40.428;-8.436;2022-07-12T07:53:25;100394.22;;;34.68;34.78
61318;BME280;47201;40.428;-8.436;2022-07-12T07:55:26;100394.34;;;36.13;31.98
61318;BME280;47201;40.428;-8.436;2022-07-12T07:57:27;100397.28;;;37.28;29.08
61318;BME280;47201;40.428;-8.436;2022-07-12T07:59:27;100399.88;;;37.59;28.29
61318;BME280;47201;40.428;-8.436;2022-07-12T08:01:28;100403.66;;;37.88;27.76
61318;BME280;47201;40.428;-8.436;2022-07-12T08:03:48;100407.03;;;37.22;27.49
61318;BME280;47201;40.428;-8.436;2022-07-12T08:05:49;100406.88;;;36.23;28.75
61318;BME280;47201;40.428;-8.436;2022-07-12T08:07:51;100410.00;;;35.38;29.91
61318;BME280;47201;40.428;-8.436;2022-07-12T08:09:51;100409.63;;;34.51;30.20
61318;BME280;47201;40.428;-8.436;2022-07-12T08:11:52;100413.97;;;33.92;30.50
61318;BME280;47201;40.428;-8.436;2022-07-12T08:13:53;100415.75;;;33.49;31.15
61318;BME280;47201;40.428;-8.436;2022-07-12T08:15:53;100411.66;;;33.27;30.93
61318;BME280;47201;40.428;-8.436;2022-07-12T08:20:15;100427.50;;;32.95;31.10
61318;BME280;47201;40.428;-8.436;2022-07-12T08:22:16;100420.31;;;32.86;30.76
61318;BME280;47201;40.428;-8.436;2022-07-12T08:24:19;100425.50;;;32.79;30.92
61318;BME280;47201;40.428;-8.436;2022-07-12T08:26:19;100428.88;;;32.81;30.60
61318;BME280;47201;40.428;-8.436;2022-07-12T08:28:20;100431.28;;;32.84;31.25
61318;BME280;47201;40.428;-8.436;2022-07-12T08:30:21;100432.44;;;33.00;30.14
61318;BME280;47201;40.428;-8.436;2022-07-12T08:32:21;100440.56;;;33.18;29.88
61318;BME280;47201;40.428;-8.436;2022-07-12T08:34:25;100436.56;;;33.48;29.76
61318;BME280;47201;40.428;-8.436;2022-07-12T08:36:25;100432.13;;;33.65;29.28
61318;BME280;47201;40.428;-8.436;2022-07-12T08:38:26;100437.38;;;33.93;29.21
61318;BME280;47201;40.428;-8.436;2022-07-12T08:40:27;100433.63;;;34.29;29.30
61318;BME280;47201;40.428;-8.436;2022-07-12T08:42:27;100435.44;;;34.63;28.82
61318;BME280;47201;40.428;-8.436;2022-07-12T08:44:28;100440.22;;;34.86;28.16
61318;BME280;47201;40.428;-8.436;2022-07-12T08:46:29;100441.59;;;34.98;27.83
61318;BME280;47201;40.428;-8.436;2022-07-12T08:48:29;100446.03;;;35.24;27.78
61318;BME280;47201;40.428;-8.436;2022-07-12T08:50:30;100444.38;;;36.04;27.25
61318;BME280;47201;40.428;-8.436;2022-07-12T08:52:30;100451.41;;;37.31;25.52
61318;BME280;47201;40.428;-8.436;2022-07-12T08:54:40;100445.53;;;38.84;23.27
61318;BME280;47201;40.428;-8.436;2022-07-12T08:56:41;100449.56;;;40.02;22.00
61318;BME280;47201;40.428;-8.436;2022-07-12T08:58:42;100454.28;;;40.83;20.96
61318;BME280;47201;40.428;-8.436;2022-07-12T09:00:42;100458.34;;;41.14;20.15
61318;BME280;47201;40.428;-8.436;2022-07-12T09:02:44;100458.34;;;41.28;20.08
61318;BME280;47201;40.428;-8.436;2022-07-12T09:04:46;100457.72;;;41.52;20.13
61318;BME280;47201;40.428;-8.436;2022-07-12T09:06:49;100457.91;;;41.64;19.04
61318;BME280;47201;40.428;-8.436;2022-07-12T09:08:50;100450.63;;;42.10;18.89
61318;BME280;47201;40.428;-8.436;2022-07-12T09:12:55;100463.66;;;42.67;18.73
61318;BME280;47201;40.428;-8.436;2022-07-12T09:15:09;100453.00;;;42.84;18.04
61318;BME280;47201;40.428;-8.436;2022-07-12T09:17:13;100455.63;;;42.72;17.92
61318;BME280;47201;40.428;-8.436;2022-07-12T09:19:15;100462.28;;;41.85;19.26
61318;BME280;47201;40.428;-8.436;2022-07-12T09:21:23;100447.34;;;41.41;18.65
61318;BME280;47201;40.428;-8.436;2022-07-12T09:23:25;100449.72;;;41.17;19.19
61318;BME280;47201;40.428;-8.436;2022-07-12T09:25:26;100450.69;;;40.63;19.51
61318;BME280;47201;40.428;-8.436;2022-07-12T09:27:27;100453.56;;;39.99;19.63
61318;BME280;47201;40.428;-8.436;2022-07-12T09:29:27;100451.63;;;39.58;20.48
61318;BME280;47201;40.428;-8.436;2022-07-12T09:31:38;100451.94;;;39.41;20.96
61318;BME280;47201;40.428;-8.436;2022-07-12T09:33:39;100453.88;;;39.76;20.42
61318;BME280;47201;40.428;-8.436;2022-07-12T09:35:59;100456.09;;;40.56;18.67
61318;BME280;47201;40.428;-8.436;2022-07-12T09:38:17;100464.28;;;41.51;18.01
61318;BME280;47201;40.428;-8.436;2022-07-12T09:40:18;100463.88;;;42.72;16.84
61318;BME280;47201;40.428;-8.436;2022-07-12T09:42:20;100456.94;;;43.46;16.74
61318;BME280;47201;40.428;-8.436;2022-07-12T09:44:24;100463.03;;;43.92;15.45
61318;BME280;47201;40.428;-8.436;2022-07-12T09:46:26;100460.75;;;44.07;14.17
61318;BME280;47201;40.428;-8.436;2022-07-12T09:48:28;100463.63;;;44.31;14.19
61318;BME280;47201;40.428;-8.436;2022-07-12T09:50:29;100468.25;;;44.18;14.17
61318;BME280;47201;40.428;-8.436;2022-07-12T09:52:30;100467.94;;;44.57;14.64
61318;BME280;47201;40.428;-8.436;2022-07-12T09:54:33;100473.25;;;45.13;13.96
61318;BME280;47201;40.428;-8.436;2022-07-12T09:56:36;100457.69;;;45.19;12.91
61318;BME280;47201;40.428;-8.436;2022-07-12T10:00:41;100471.47;;;45.30;13.94
61318;BME280;47201;40.428;-8.436;2022-07-12T10:02:41;100469.94;;;45.58;12.74
61318;BME280;47201;40.428;-8.436;2022-07-12T10:04:42;100473.16;;;45.43;12.75
61318;BME280;47201;40.428;-8.436;2022-07-12T10:06:43;100474.63;;;45.58;13.05
61318;BME280;47201;40.428;-8.436;2022-07-12T10:08:44;100471.56;;;45.12;12.66
61318;BME280;47201;40.428;-8.436;2022-07-12T10:10:44;100470.50;;;45.49;12.71
61318;BME280;47201;40.428;-8.436;2022-07-12T10:12:45;100462.97;;;45.20;12.59
61318;BME280;47201;40.428;-8.436;2022-07-12T10:14:46;100475.44;;;45.58;12.25
61318;BME280;47201;40.428;-8.436;2022-07-12T10:16:52;100476.38;;;45.88;11.98
61318;BME280;47201;40.428;-8.436;2022-07-12T10:21:21;100482.16;;;45.74;12.04
61318;BME280;47201;40.428;-8.436;2022-07-12T10:23:36;100479.41;;;45.27;12.51
61318;BME280;47201;40.428;-8.436;2022-07-12T10:25:37;100496.09;;;44.90;12.36
61318;BME280;47201;40.428;-8.436;2022-07-12T10:29:49;100485.50;;;45.17;12.46
61318;BME280;47201;40.428;-8.436;2022-07-12T10:31:50;100487.41;;;45.28;12.21
61318;BME280;47201;40.428;-8.436;2022-07-12T10:36:09;100488.22;;;46.12;11.71
61318;BME280;47201;40.428;-8.436;2022-07-12T10:38:14;100486.69;;;45.92;11.67